createdAt,value
2022-10-29T00:00:56.540Z,23.27
2022-10-29T00:03:24.339Z,22.75
2022-10-29T00:06:05.799Z,20.52
2022-10-29T00:08:35.044Z,19.42
2022-10-29T00:11:07.395Z,18.92
2022-10-29T00:13:34.993Z,20.63
2022-10-29T00:16:14.857Z,21.65
2022-10-29T00:18:41.688Z,19.38
2022-10-29T00:21:12.908Z,18.48
2022-10-29T00:23:39.843Z,17.92
2022-10-29T00:26:07.302Z,16.58
2022-10-29T00:28:34.364Z,18.05
2022-10-29T00:31:09.978Z,18.60
2022-10-29T00:33:36.544Z,17.67
2022-10-29T00:36:10.173Z,17.08
2022-10-29T00:38:36.868Z,19.30
2022-10-29T00:41:05.876Z,16.38
2022-10-29T00:43:37.727Z,14.77
2022-10-29T00:46:04.439Z,14.60
2022-10-29T00:48:36.146Z,15.77
2022-10-29T00:51:06.962Z,14.85
2022-10-29T00:53:38.431Z,15.60
2022-10-29T00:56:05.843Z,15.65
2022-10-29T00:58:34.195Z,15.20
2022-10-29T01:01:01.573Z,15.48
2022-10-29T01:03:28.240Z,16.25
2022-10-29T01:05:55.429Z,16.05
2022-10-29T01:08:22.187Z,15.75
2022-10-29T01:11:11.117Z,16.10
2022-10-29T01:14:07.860Z,15.07
2022-10-29T01:16:46.911Z,16.48
2022-10-29T01:19:25.696Z,15.98
2022-10-29T01:22:25.547Z,16.63
2022-10-29T01:24:57.745Z,15.00
2022-10-29T01:27:54.237Z,16.20
2022-10-29T01:30:21.122Z,16.90
2022-10-29T01:33:35.193Z,15.02
2022-10-29T01:36:42.901Z,14.57
2022-10-29T01:39:24.599Z,14.65
2022-10-29T01:42:11.092Z,14.88
2022-10-29T01:44:41.808Z,14.52
2022-10-29T01:47:19.065Z,13.73
2022-10-29T01:49:50.660Z,14.10
2022-10-29T01:52:20.386Z,14.85
2022-10-29T01:54:47.809Z,15.77
2022-10-29T01:57:39.758Z,16.42
2022-10-29T02:00:06.774Z,16.42
2022-10-29T02:02:48.578Z,16.02
2022-10-29T02:05:33.320Z,15.95
2022-10-29T02:08:11.893Z,16.75
2022-10-29T02:10:47.805Z,16.48
2022-10-29T02:13:17.683Z,16.80
2022-10-29T02:15:48.948Z,15.90
2022-10-29T02:18:19.277Z,15.75
2022-10-29T02:20:47.232Z,15.23
2022-10-29T02:23:16.299Z,16.33
2022-10-29T02:25:43.218Z,15.75
2022-10-29T02:28:10.044Z,15.82
2022-10-29T02:30:36.823Z,16.05
2022-10-29T02:33:03.588Z,16.10
2022-10-29T02:35:30.261Z,16.35
2022-10-29T02:37:56.979Z,18.60
2022-10-29T02:40:23.605Z,15.85
2022-10-29T02:42:50.213Z,17.00
2022-10-29T02:45:16.880Z,18.55
2022-10-29T02:47:43.510Z,17.00
2022-10-29T02:50:10.123Z,18.23
2022-10-29T02:52:36.755Z,17.30
2022-10-29T02:55:03.644Z,15.85
2022-10-29T02:57:30.288Z,15.57
2022-10-29T02:59:56.944Z,15.32
2022-10-29T03:02:23.682Z,15.38
2022-10-29T03:04:50.338Z,14.68
2022-10-29T03:07:16.972Z,13.88
2022-10-29T03:09:43.609Z,15.07
2022-10-29T03:12:10.203Z,15.88
2022-10-29T03:14:36.842Z,14.43
2022-10-29T03:17:03.690Z,14.23
2022-10-29T03:19:30.270Z,14.20
2022-10-29T03:21:56.881Z,13.77
2022-10-29T03:24:23.495Z,14.30
2022-10-29T03:26:50.157Z,14.32
2022-10-29T03:29:16.849Z,15.70
2022-10-29T03:31:43.431Z,14.68
2022-10-29T03:34:10.089Z,14.68
2022-10-29T03:36:36.764Z,16.48
2022-10-29T03:39:03.454Z,12.95
2022-10-29T03:41:30.091Z,14.32
2022-10-29T03:43:56.784Z,14.15
2022-10-29T03:46:23.460Z,14.80
2022-10-29T03:48:50.501Z,14.57
2022-10-29T03:51:17.368Z,14.93
2022-10-29T03:53:44.250Z,14.38
2022-10-29T03:56:11.398Z,14.27
2022-10-29T03:58:37.963Z,13.43
2022-10-29T04:01:08.138Z,11.90
2022-10-29T04:03:36.481Z,14.35
2022-10-29T04:06:10.118Z,14.07
2022-10-29T04:08:36.774Z,13.80
2022-10-29T04:11:03.387Z,13.55
2022-10-29T04:13:30.063Z,13.80
2022-10-29T04:15:56.778Z,12.60
2022-10-29T04:18:24.579Z,12.65
2022-10-29T04:29:11.536Z,12.65
2022-10-29T04:31:38.489Z,13.20
2022-10-29T04:34:05.697Z,11.17
2022-10-29T04:36:32.348Z,11.65
2022-10-29T04:38:58.916Z,11.13
2022-10-29T04:41:25.516Z,10.60
2022-10-29T04:43:52.060Z,11.48
2022-10-29T04:46:18.619Z,12.75
2022-10-29T04:48:45.425Z,12.30
2022-10-29T04:51:23.508Z,12.82
2022-10-29T04:53:50.616Z,14.27
2022-10-29T04:56:18.078Z,14.93
2022-10-29T04:58:44.663Z,13.43
2022-10-29T05:01:11.348Z,14.32
2022-10-29T05:03:38.301Z,13.00
2022-10-29T05:06:06.332Z,14.18
2022-10-29T05:08:33.177Z,14.90
2022-10-29T05:11:06.095Z,15.45
2022-10-29T05:13:33.280Z,15.23
2022-10-29T05:15:59.938Z,13.10
2022-10-29T05:18:26.719Z,14.43
2022-10-29T05:20:57.034Z,20.02
2022-10-29T05:23:23.893Z,20.67
2022-10-29T05:25:52.360Z,15.35
2022-10-29T05:28:21.744Z,22.42
2022-10-29T05:30:50.684Z,27.00
2022-10-29T05:33:20.343Z,27.42
2022-10-29T05:35:47.471Z,28.13
2022-10-29T05:38:16.622Z,43.58
2022-10-29T05:40:45.342Z,23.15
2022-10-29T05:43:14.098Z,22.77
2022-10-29T05:45:41.872Z,18.08
2022-10-29T05:48:08.721Z,21.80
2022-10-29T05:50:35.693Z,21.27
2022-10-29T05:53:05.427Z,21.52
2022-10-29T05:55:33.874Z,25.88
2022-10-29T05:58:03.599Z,25.83
2022-10-29T06:00:31.942Z,27.90
2022-10-29T06:02:59.050Z,22.48
2022-10-29T06:05:26.642Z,25.95
2022-10-29T06:07:56.166Z,26.90
2022-10-29T06:10:24.725Z,28.55
2022-10-29T06:12:51.552Z,29.33
2022-10-29T06:15:19.108Z,42.65
2022-10-29T06:17:46.698Z,47.13
2022-10-29T06:20:17.245Z,30.98
2022-10-29T06:22:44.008Z,29.77
2022-10-29T06:25:13.179Z,27.38
2022-10-29T06:27:39.930Z,32.03
2022-10-29T06:30:07.396Z,28.92
2022-10-29T06:32:33.979Z,27.55
2022-10-29T06:35:02.043Z,28.23
2022-10-29T06:37:29.799Z,24.38
2022-10-29T06:39:56.382Z,25.60
2022-10-29T06:42:22.999Z,26.90
2022-10-29T06:44:49.591Z,24.48
2022-10-29T06:47:16.214Z,25.02
2022-10-29T06:49:42.807Z,25.80
2022-10-29T06:52:09.428Z,24.92
2022-10-29T06:54:36.089Z,26.60
2022-10-29T06:57:02.800Z,25.10
2022-10-29T06:59:29.501Z,25.55
2022-10-29T07:01:56.303Z,23.08
2022-10-29T07:04:23.253Z,23.00
2022-10-29T07:06:50.184Z,22.08
2022-10-29T07:09:16.873Z,21.83
2022-10-29T07:11:43.935Z,20.67
2022-10-29T07:14:10.533Z,22.45
2022-10-29T07:16:37.326Z,21.05
2022-10-29T07:19:04.734Z,20.05
2022-10-29T07:21:31.679Z,18.30
2022-10-29T07:23:58.398Z,15.32
2022-10-29T07:26:24.945Z,16.25
2022-10-29T07:28:54.528Z,17.95
2022-10-29T07:31:21.199Z,23.65
2022-10-29T07:33:47.801Z,22.17
2022-10-29T07:36:15.801Z,24.45
2022-10-29T07:38:45.275Z,24.77
2022-10-29T07:41:11.991Z,24.92
2022-10-29T07:43:38.568Z,20.90
2022-10-29T07:46:05.567Z,18.45
2022-10-29T07:48:32.398Z,19.40
2022-10-29T07:51:00.436Z,20.08
2022-10-29T07:53:27.192Z,18.13
2022-10-29T07:55:55.437Z,16.00
2022-10-29T07:58:22.580Z,19.63
2022-10-29T08:00:49.978Z,19.70
2022-10-29T08:03:18.838Z,21.85
2022-10-29T08:05:50.893Z,19.83
2022-10-29T08:08:20.218Z,22.48
2022-10-29T08:10:51.997Z,18.50
2022-10-29T08:13:18.750Z,19.13
2022-10-29T08:15:49.498Z,31.83
2022-10-29T08:18:17.796Z,17.08
2022-10-29T08:20:45.183Z,14.93
2022-10-29T08:23:12.858Z,20.30
2022-10-29T08:25:44.837Z,18.70
2022-10-29T08:28:14.395Z,19.70
2022-10-29T08:30:44.091Z,18.95
2022-10-29T08:33:11.304Z,17.63
2022-10-29T08:35:37.883Z,16.63
2022-10-29T08:38:04.679Z,16.77
2022-10-29T08:40:31.371Z,16.70
2022-10-29T08:43:16.920Z,18.60
2022-10-29T08:45:49.120Z,18.30
2022-10-29T08:48:34.320Z,18.92
2022-10-29T08:51:22.469Z,19.80
2022-10-29T08:54:10.406Z,16.70
2022-10-29T08:56:43.498Z,17.40
2022-10-29T08:59:23.719Z,15.73
2022-10-29T09:01:51.310Z,19.08
2022-10-29T09:04:32.902Z,16.50
2022-10-29T09:07:05.224Z,17.40
2022-10-29T09:09:37.866Z,16.55
2022-10-29T09:12:21.775Z,17.95
2022-10-29T09:15:03.362Z,16.98
2022-10-29T09:17:38.830Z,18.75
2022-10-29T09:20:47.684Z,21.95
2022-10-29T09:23:47.090Z,20.63
2022-10-29T09:26:22.850Z,18.90
2022-10-29T09:29:05.607Z,20.13
2022-10-29T09:31:42.857Z,21.52
2022-10-29T09:34:18.208Z,20.95
2022-10-29T09:36:48.582Z,20.17
2022-10-29T09:39:35.301Z,20.10
2022-10-29T09:42:03.354Z,20.02
2022-10-29T09:44:47.567Z,19.92
2022-10-29T09:47:27.695Z,18.65
2022-10-29T09:50:21.639Z,18.60
2022-10-29T09:52:48.923Z,22.10
2022-10-29T09:55:26.910Z,19.63
2022-10-29T09:57:56.391Z,17.17
2022-10-29T10:00:27.861Z,20.73
2022-10-29T10:03:05.136Z,22.10
2022-10-29T10:05:34.776Z,17.13
2022-10-29T10:08:14.977Z,19.55
2022-10-29T10:10:54.959Z,18.13
2022-10-29T10:13:36.200Z,17.00
2022-10-29T10:16:06.251Z,16.50
2022-10-29T10:18:33.149Z,13.02
2022-10-29T10:21:02.912Z,13.70
2022-10-29T10:23:52.629Z,13.77
2022-10-29T10:26:46.378Z,15.18
2022-10-29T10:29:17.792Z,15.20
2022-10-29T10:32:10.737Z,16.10
2022-10-29T16:27:14.908Z,15.40
2022-10-29T16:29:42.124Z,15.90
2022-10-29T16:32:16.999Z,12.35
2022-10-29T16:34:44.078Z,16.80
2022-10-29T16:37:16.699Z,25.08
2022-10-29T16:39:44.049Z,22.15
2022-10-29T16:42:31.990Z,16.00
2022-10-29T16:44:58.874Z,15.88
2022-10-29T16:47:25.500Z,15.50
2022-10-29T16:49:52.149Z,18.75
2022-10-29T16:52:22.432Z,22.33
2022-10-29T16:54:50.783Z,18.77
2022-10-29T16:57:17.549Z,17.48
2022-10-29T16:59:44.185Z,20.10
2022-10-29T17:02:11.675Z,17.25
2022-10-29T17:04:38.511Z,13.38
2022-10-29T17:07:05.502Z,27.55
2022-10-29T17:09:35.360Z,78.15
2022-10-29T17:12:02.542Z,28.63
2022-10-29T17:14:29.131Z,25.40
2022-10-29T17:16:57.319Z,15.43
2022-10-29T17:19:24.164Z,15.25
2022-10-29T17:21:53.128Z,19.20
2022-10-29T17:24:19.978Z,23.70
2022-10-29T17:26:46.642Z,29.55
2022-10-29T17:29:13.523Z,31.13
2022-10-29T17:31:40.612Z,93.50
2022-10-29T17:34:07.166Z,48.08
2022-10-29T17:36:34.522Z,28.45
2022-10-29T17:39:01.171Z,24.40
2022-10-29T17:41:27.857Z,20.85
2022-10-29T17:43:54.537Z,22.77
2022-10-29T17:46:21.164Z,23.67
2022-10-29T17:48:55.998Z,27.75
2022-10-29T17:51:23.499Z,31.75
2022-10-29T17:53:50.421Z,32.28
2022-10-29T17:56:18.889Z,35.42
2022-10-29T17:58:45.668Z,39.72
2022-10-29T18:01:12.955Z,35.00
2022-10-29T18:03:39.767Z,36.95
2022-10-29T18:06:11.393Z,35.95
2022-10-29T18:08:39.759Z,38.63
2022-10-29T18:11:20.160Z,35.25
2022-10-29T18:13:53.218Z,32.97
2022-10-29T18:16:25.988Z,33.45
2022-10-29T18:19:02.008Z,30.55
2022-10-29T18:21:29.940Z,29.73
2022-10-29T18:23:59.636Z,34.45
2022-10-29T18:26:30.884Z,29.60
2022-10-29T18:28:59.723Z,29.52
2022-10-29T18:31:30.192Z,28.33
2022-10-29T18:33:59.255Z,27.70
2022-10-29T18:36:26.222Z,27.48
2022-10-29T18:38:57.567Z,24.67
2022-10-29T18:41:27.807Z,26.15
2022-10-29T18:43:57.854Z,26.33
2022-10-29T18:46:25.060Z,24.25
2022-10-29T18:48:57.912Z,22.83
2022-10-29T18:51:44.777Z,26.25
2022-10-29T18:54:13.048Z,22.88
2022-10-29T18:56:40.113Z,24.02
2022-10-29T18:59:09.697Z,23.48
2022-10-29T19:01:37.059Z,24.35
2022-10-29T19:04:06.388Z,41.75
2022-10-29T19:06:37.537Z,18.42
2022-10-29T19:09:10.428Z,23.67
2022-10-29T19:11:37.209Z,32.00
2022-10-29T19:14:10.740Z,35.92
2022-10-29T19:16:37.480Z,32.72
2022-10-29T19:19:07.709Z,32.08
2022-10-29T19:21:35.888Z,30.25
2022-10-29T19:24:03.786Z,28.83
2022-10-29T19:26:35.015Z,29.67
2022-10-29T19:29:03.800Z,30.70
2022-10-29T19:31:33.334Z,28.60
2022-10-29T19:34:06.204Z,29.95
2022-10-29T19:36:34.582Z,30.92
2022-10-29T19:39:01.332Z,33.72
2022-10-29T19:41:28.300Z,42.65
2022-10-29T19:43:59.704Z,31.35
2022-10-29T19:46:30.044Z,29.17
2022-10-29T19:48:58.563Z,30.88
2022-10-29T19:51:25.238Z,32.25
2022-10-29T19:53:52.087Z,30.50
2022-10-29T19:56:19.928Z,32.35
2022-10-29T19:58:46.994Z,29.00
2022-10-29T20:01:19.086Z,27.90
2022-10-29T20:03:47.155Z,26.50
2022-10-29T20:06:14.808Z,27.48
2022-10-29T20:08:41.651Z,27.63
2022-10-29T20:11:08.253Z,27.67
2022-10-29T20:13:34.960Z,27.45
2022-10-29T20:16:10.930Z,30.92
2022-10-29T20:18:38.470Z,31.30
2022-10-29T20:23:32.639Z,33.10
2022-10-29T20:25:59.276Z,32.10
2022-10-29T20:28:27.762Z,31.85
2022-10-29T20:31:14.814Z,32.88
2022-10-29T20:33:41.529Z,33.35
2022-10-29T20:36:09.165Z,34.05
2022-10-29T20:38:35.845Z,32.97
2022-10-29T20:41:02.447Z,31.30
2022-10-29T20:43:29.087Z,26.02
2022-10-29T20:46:01.012Z,24.83
2022-10-29T20:48:28.700Z,26.13
2022-10-29T20:50:55.420Z,24.08
2022-10-29T20:53:25.636Z,22.38
2022-10-29T20:55:52.430Z,23.20
2022-10-29T20:58:20.300Z,22.63
2022-10-29T21:00:47.169Z,22.65
2022-10-29T21:03:17.912Z,21.45
2022-10-29T21:05:44.669Z,21.45
2022-10-29T21:08:11.349Z,21.50
2022-10-29T21:10:37.989Z,20.63
2022-10-29T21:13:05.179Z,21.10
2022-10-29T21:15:36.086Z,23.48
2022-10-29T21:18:02.737Z,23.35
2022-10-29T21:20:29.361Z,21.80
2022-10-29T21:22:56.346Z,21.45
2022-10-29T21:25:23.247Z,23.38
2022-10-29T21:27:54.140Z,22.08
2022-10-29T21:33:06.741Z,23.98
2022-10-29T21:35:36.163Z,23.83
2022-10-29T21:38:02.818Z,23.17
2022-10-29T21:40:29.529Z,22.73
2022-10-29T21:42:56.450Z,23.85
2022-10-29T21:45:23.360Z,24.33
2022-10-29T21:47:50.010Z,24.90
2022-10-29T21:50:16.689Z,24.42
2022-10-29T21:52:43.323Z,25.70
2022-10-29T21:55:09.953Z,24.00
2022-10-29T21:57:36.564Z,23.80
2022-10-29T22:00:05.579Z,23.73
2022-10-29T22:02:32.547Z,24.95
2022-10-29T22:04:59.169Z,23.95
2022-10-29T22:07:28.870Z,22.73
2022-10-29T22:09:55.540Z,24.58
2022-10-29T22:12:22.326Z,23.40
2022-10-29T22:14:49.800Z,22.67
2022-10-29T22:17:16.616Z,23.08
2022-10-29T22:19:43.292Z,24.30
2022-10-29T22:22:10.195Z,23.45
2022-10-29T22:24:36.820Z,23.58
2022-10-29T22:27:06.425Z,24.83
2022-10-29T22:29:35.536Z,24.38
2022-10-29T22:32:02.478Z,23.38
2022-10-29T22:34:29.088Z,23.75
2022-10-29T22:36:55.666Z,24.95
2022-10-29T22:39:22.288Z,22.27
2022-10-29T22:41:48.935Z,29.05
2022-10-29T22:44:15.610Z,22.67
2022-10-29T22:46:42.331Z,23.20
2022-10-29T22:49:09.162Z,22.67
2022-10-29T22:51:35.917Z,24.63
2022-10-29T22:54:02.839Z,23.83
2022-10-29T22:56:32.309Z,24.23
2022-10-29T22:58:59.567Z,23.52
2022-10-29T23:01:31.772Z,21.98
2022-10-29T23:03:59.400Z,22.23
2022-10-29T23:06:26.315Z,21.60
2022-10-29T23:08:58.119Z,22.27
2022-10-29T23:11:28.628Z,23.05
2022-10-29T23:13:57.737Z,21.40
2022-10-29T23:16:26.640Z,21.13
2022-10-29T23:18:55.551Z,22.60
2022-10-29T23:21:25.953Z,20.92
2022-10-29T23:23:53.000Z,21.38
2022-10-29T23:26:20.802Z,22.42
2022-10-29T23:28:49.010Z,23.58
2022-10-29T23:31:19.038Z,24.08
2022-10-29T23:33:47.767Z,24.90
2022-10-29T23:36:15.874Z,25.55
2022-10-29T23:38:42.591Z,25.30
2022-10-29T23:41:09.393Z,24.92
2022-10-29T23:43:36.092Z,24.17
2022-10-29T23:46:02.875Z,24.63
2022-10-29T23:48:29.719Z,24.88
2022-10-29T23:50:56.761Z,26.42
2022-10-29T23:53:24.142Z,25.88
2022-10-29T23:55:50.910Z,26.17
2022-10-29T23:58:17.726Z,25.13
